PWSweather.com
Personal Weather Stations
Station Observations
KOMOKA
Komoka Village, Komoka, ON N0L IRO

Komoka VillageKomoka, ON N0L IRO

Lat: 42.9542444, Lon: -81.4348861

Elevation: 805

Station Type: Davis Vantage Pro 2

www.komokaweather.com

High Low Average
Temperature 50.2°F10.1°C 44.6°F7.0°C 46.8°F8.2°C
Dew Point 43.0°F6.1°C 37.2°F2.9°C 39.6°F4.2°C
Winds 7.0 mph 11.3 kmh Calm Calm 2.0 mph N3.2 kmh N
Wind Gusts 23.0 mph37.0 kmh -- 6.0 mph9.7 kmh
Humidity 77% 75% 76%
Pressure 29.79 in1008.8 mb 29.28 in991.5 mb -
Precipitation 0.98 in24.9 mm - -
Hour Temp Dew Point Humidity Winds Wind Gusts Pressure Precip Precip Rate Daily Precip Total
12:03 AM 44.6°F7.0°C 37.2°F2.9°C 75% 4.0 mph N6.4 kmh N 12.0 mph19.3 kmh 29.79 in1008.8 mb 0.06 in1.5 mm 1.20 in30.5 mm 0.06 in1.5 mm
12:10 AM 44.6°F7.0°C 37.2°F2.9°C 75% 4.0 mph N6.4 kmh N 8.0 mph12.9 kmh 29.79 in1008.8 mb 0.07 in1.8 mm 0.09 in2.3 mm 0.07 in1.8 mm
12:17 AM 44.6°F7.0°C 37.2°F2.9°C 75% 4.0 mph N6.4 kmh N 8.0 mph12.9 kmh 29.78 in1008.5 mb 0.08 in2.0 mm 0.09 in2.3 mm 0.08 in2.0 mm
12:24 AM 44.6°F7.0°C 37.2°F2.9°C 75% 3.0 mph N4.8 kmh N 7.0 mph11.3 kmh 29.78 in1008.5 mb 0.08 in2.0 mm 0.00 in0.0 mm 0.08 in2.0 mm
12:31 AM 44.8°F7.1°C 37.2°F2.9°C 75% 3.0 mph N4.8 kmh N 5.0 mph8.0 kmh 29.78 in1008.5 mb 0.09 in2.3 mm 0.09 in2.3 mm 0.09 in2.3 mm
12:38 AM 44.8°F7.1°C 37.2°F2.9°C 75% 3.0 mph N4.8 kmh N 7.0 mph11.3 kmh 29.78 in1008.5 mb 0.06 in1.5 mm 0.00 in0.0 mm 0.09 in2.3 mm
12:45 AM 44.8°F7.1°C 37.2°F2.9°C 75% 1.0 mph N1.6 kmh N 7.0 mph11.3 kmh 29.77 in1008.1 mb 0.06 in1.5 mm 0.00 in0.0 mm 0.09 in2.3 mm
12:52 AM 44.8°F7.1°C 37.2°F2.9°C 75% 1.0 mph N1.6 kmh N 4.0 mph6.4 kmh 29.77 in1008.1 mb 0.05 in1.3 mm 0.00 in0.0 mm 0.09 in2.3 mm
12:59 AM 44.8°F7.1°C 37.2°F2.9°C 75% 1.0 mph N1.6 kmh N 4.0 mph6.4 kmh 29.77 in1008.1 mb 0.04 in1.0 mm 0.00 in0.0 mm 0.09 in2.3 mm
01:06 AM 44.8°F7.1°C 37.4°F3.0°C 75% 1.0 mph N1.6 kmh N 4.0 mph6.4 kmh 29.77 in1008.1 mb 0.02 in0.5 mm 0.00 in0.0 mm 0.09 in2.3 mm
01:13 AM 44.8°F7.1°C 37.4°F3.0°C 75% 1.0 mph N1.6 kmh N 4.0 mph6.4 kmh 29.76 in1007.8 mb 0.02 in0.5 mm 0.00 in0.0 mm 0.09 in2.3 mm
01:20 AM 44.8°F7.1°C 37.4°F3.0°C 75% 3.0 mph N4.8 kmh N 5.0 mph8.0 kmh 29.76 in1007.8 mb 0.01 in0.3 mm 0.00 in0.0 mm 0.09 in2.3 mm
01:27 AM 45.0°F7.2°C 37.4°F3.0°C 75% Calm Calm 3.0 mph4.8 kmh 29.75 in1007.5 mb 0.00 in0.0 mm 0.00 in0.0 mm 0.09 in2.3 mm
01:34 AM 45.0°F7.2°C 37.9°F3.3°C 76% Calm Calm -- 29.76 in1007.8 mb 0.00 in0.0 mm 0.00 in0.0 mm 0.09 in2.3 mm
01:41 AM 45.0°F7.2°C 37.6°F3.1°C 75% Calm Calm -- 29.76 in1007.8 mb 0.00 in0.0 mm 0.00 in0.0 mm 0.09 in2.3 mm
01:48 AM 45.0°F7.2°C 37.6°F3.1°C 75% Calm Calm 3.0 mph4.8 kmh 29.75 in1007.5 mb 0.00 in0.0 mm 0.00 in0.0 mm 0.09 in2.3 mm
01:55 AM 45.1°F7.3°C 37.9°F3.3°C 76% 1.0 mph N1.6 kmh N 3.0 mph4.8 kmh 29.75 in1007.5 mb 0.00 in0.0 mm 0.00 in0.0 mm 0.09 in2.3 mm
02:02 AM 45.1°F7.3°C 37.9°F3.3°C 76% Calm Calm 3.0 mph4.8 kmh 29.74 in1007.1 mb 0.01 in0.3 mm 0.01 in0.3 mm 0.09 in2.3 mm
02:09 AM 45.1°F7.3°C 37.9°F3.3°C 76% 1.0 mph N1.6 kmh N 3.0 mph4.8 kmh 29.74 in1007.1 mb 0.01 in0.3 mm 0.00 in0.0 mm 0.09 in2.3 mm
02:16 AM 45.1°F7.3°C 38.1°F3.4°C 76% Calm Calm 3.0 mph4.8 kmh 29.74 in1007.1 mb 0.01 in0.3 mm 0.00 in0.0 mm 0.09 in2.3 mm
02:23 AM 45.1°F7.3°C 38.1°F3.4°C 76% Calm Calm 3.0 mph4.8 kmh 29.73 in1006.8 mb 0.01 in0.3 mm 0.00 in0.0 mm 0.09 in2.3 mm
02:30 AM 45.1°F7.3°C 37.9°F3.3°C 76% Calm Calm 3.0 mph4.8 kmh 29.72 in1006.4 mb 0.01 in0.3 mm 0.00 in0.0 mm 0.09 in2.3 mm
02:37 AM 45.1°F7.3°C 38.1°F3.4°C 76% Calm Calm -- 29.73 in1006.8 mb 0.01 in0.3 mm 0.00 in0.0 mm 0.09 in2.3 mm
02:44 AM 45.1°F7.3°C 38.1°F3.4°C 76% Calm Calm 1.0 mph1.6 kmh 29.72 in1006.4 mb 0.01 in0.3 mm 0.00 in0.0 mm 0.09 in2.3 mm
02:51 AM 45.1°F7.3°C 38.1°F3.4°C 76% Calm Calm 3.0 mph4.8 kmh 29.71 in1006.1 mb 0.02 in0.5 mm 0.09 in2.3 mm 0.10 in2.5 mm
02:58 AM 45.1°F7.3°C 38.1°F3.4°C 76% Calm Calm 3.0 mph4.8 kmh 29.71 in1006.1 mb 0.02 in0.5 mm 0.00 in0.0 mm 0.10 in2.5 mm
03:05 AM 45.1°F7.3°C 37.9°F3.3°C 76% 1.0 mph N1.6 kmh N 3.0 mph4.8 kmh 29.71 in1006.1 mb 0.01 in0.3 mm 0.00 in0.0 mm 0.10 in2.5 mm
03:12 AM 45.1°F7.3°C 38.1°F3.4°C 76% 1.0 mph N1.6 kmh N 4.0 mph6.4 kmh 29.71 in1006.1 mb 0.01 in0.3 mm 0.00 in0.0 mm 0.10 in2.5 mm
03:19 AM 45.1°F7.3°C 38.1°F3.4°C 76% 1.0 mph N1.6 kmh N 4.0 mph6.4 kmh 29.71 in1006.1 mb 0.01 in0.3 mm 0.00 in0.0 mm 0.10 in2.5 mm
03:26 AM 45.1°F7.3°C 38.1°F3.4°C 76% 1.0 mph N1.6 kmh N 4.0 mph6.4 kmh 29.70 in1005.8 mb 0.01 in0.3 mm 0.00 in0.0 mm 0.10 in2.5 mm
03:33 AM 45.3°F7.4°C 38.1°F3.4°C 76% 1.0 mph N1.6 kmh N 4.0 mph6.4 kmh 29.69 in1005.4 mb 0.01 in0.3 mm 0.00 in0.0 mm 0.10 in2.5 mm
03:40 AM 45.3°F7.4°C 38.1°F3.4°C 76% 1.0 mph N1.6 kmh N 4.0 mph6.4 kmh 29.69 in1005.4 mb 0.01 in0.3 mm 0.00 in0.0 mm 0.10 in2.5 mm
03:47 AM 45.3°F7.4°C 38.1°F3.4°C 76% 1.0 mph N1.6 kmh N 4.0 mph6.4 kmh 29.69 in1005.4 mb 0.00 in0.0 mm 0.00 in0.0 mm 0.10 in2.5 mm
03:54 AM 45.3°F7.4°C 38.1°F3.4°C 76% 1.0 mph N1.6 kmh N 4.0 mph6.4 kmh 29.68 in1005.1 mb 0.00 in0.0 mm 0.00 in0.0 mm 0.10 in2.5 mm
04:01 AM 45.3°F7.4°C 38.3°F3.5°C 76% 1.0 mph N1.6 kmh N 4.0 mph6.4 kmh 29.68 in1005.1 mb 0.00 in0.0 mm 0.00 in0.0 mm 0.10 in2.5 mm
04:08 AM 45.5°F7.5°C 38.3°F3.5°C 76% 1.0 mph N1.6 kmh N 5.0 mph8.0 kmh 29.68 in1005.1 mb 0.00 in0.0 mm 0.00 in0.0 mm 0.10 in2.5 mm
04:15 AM 45.5°F7.5°C 38.3°F3.5°C 76% 1.0 mph N1.6 kmh N 5.0 mph8.0 kmh 29.68 in1005.1 mb 0.00 in0.0 mm 0.00 in0.0 mm 0.10 in2.5 mm
04:22 AM 45.5°F7.5°C 38.3°F3.5°C 76% 1.0 mph N1.6 kmh N 4.0 mph6.4 kmh 29.68 in1005.1 mb 0.00 in0.0 mm 0.00 in0.0 mm 0.10 in2.5 mm
04:29 AM 45.5°F7.5°C 38.3°F3.5°C 76% 3.0 mph N4.8 kmh N 7.0 mph11.3 kmh 29.67 in1004.7 mb 0.00 in0.0 mm 0.00 in0.0 mm 0.10 in2.5 mm
04:36 AM 45.7°F7.6°C 38.5°F3.6°C 76% 3.0 mph N4.8 kmh N 7.0 mph11.3 kmh 29.67 in1004.7 mb 0.00 in0.0 mm 0.00 in0.0 mm 0.10 in2.5 mm
04:43 AM 45.7°F7.6°C 38.5°F3.6°C 76% 3.0 mph N4.8 kmh N 7.0 mph11.3 kmh 29.67 in1004.7 mb 0.00 in0.0 mm 0.00 in0.0 mm 0.10 in2.5 mm
04:50 AM 45.7°F7.6°C 38.5°F3.6°C 76% 3.0 mph N4.8 kmh N 5.0 mph8.0 kmh 29.66 in1004.4 mb 0.00 in0.0 mm 0.00 in0.0 mm 0.10 in2.5 mm
04:57 AM 45.7°F7.6°C 38.5°F3.6°C 76% 3.0 mph N4.8 kmh N 7.0 mph11.3 kmh 29.66 in1004.4 mb 0.00 in0.0 mm 0.00 in0.0 mm 0.10 in2.5 mm
05:04 AM 45.9°F7.7°C 38.7°F3.7°C 76% 1.0 mph N1.6 kmh N 5.0 mph8.0 kmh 29.66 in1004.4 mb 0.00 in0.0 mm 0.00 in0.0 mm 0.10 in2.5 mm
05:11 AM 45.9°F7.7°C 38.7°F3.7°C 76% 1.0 mph N1.6 kmh N 4.0 mph6.4 kmh 29.66 in1004.4 mb 0.00 in0.0 mm 0.00 in0.0 mm 0.10 in2.5 mm
05:18 AM 45.9°F7.7°C 38.8°F3.8°C 76% 1.0 mph N1.6 kmh N 3.0 mph4.8 kmh 29.66 in1004.4 mb 0.00 in0.0 mm 0.00 in0.0 mm 0.10 in2.5 mm
05:25 AM 45.9°F7.7°C 38.8°F3.8°C 76% 1.0 mph N1.6 kmh N 4.0 mph6.4 kmh 29.66 in1004.4 mb 0.00 in0.0 mm 0.00 in0.0 mm 0.10 in2.5 mm
05:32 AM 45.9°F7.7°C 38.8°F3.8°C 76% 3.0 mph N4.8 kmh N 5.0 mph8.0 kmh 29.65 in1004.1 mb 0.00 in0.0 mm 0.00 in0.0 mm 0.10 in2.5 mm
05:39 AM 45.9°F7.7°C 38.8°F3.8°C 76% 3.0 mph N4.8 kmh N 5.0 mph8.0 kmh 29.65 in1004.1 mb 0.00 in0.0 mm 0.00 in0.0 mm 0.10 in2.5 mm
05:46 AM 46.0°F7.8°C 38.8°F3.8°C 76% 3.0 mph N4.8 kmh N 7.0 mph11.3 kmh 29.65 in1004.1 mb 0.00 in0.0 mm 0.00 in0.0 mm 0.10 in2.5 mm
05:53 AM 46.0°F7.8°C 38.8°F3.8°C 76% 1.0 mph N1.6 kmh N 4.0 mph6.4 kmh 29.65 in1004.1 mb 0.00 in0.0 mm 0.00 in0.0 mm 0.10 in2.5 mm
06:00 AM 46.0°F7.8°C 38.8°F3.8°C 76% 3.0 mph N4.8 kmh N 5.0 mph8.0 kmh 29.64 in1003.7 mb 0.00 in0.0 mm 0.00 in0.0 mm 0.10 in2.5 mm
06:07 AM 46.0°F7.8°C 38.8°F3.8°C 76% 3.0 mph N4.8 kmh N 4.0 mph6.4 kmh 29.64 in1003.7 mb 0.00 in0.0 mm 0.00 in0.0 mm 0.10 in2.5 mm
06:14 AM 46.0°F7.8°C 39.0°F3.9°C 76% 1.0 mph N1.6 kmh N 4.0 mph6.4 kmh 29.64 in1003.7 mb 0.00 in0.0 mm 0.00 in0.0 mm 0.10 in2.5 mm
06:21 AM 46.0°F7.8°C 39.0°F3.9°C 76% Calm Calm 3.0 mph4.8 kmh 29.65 in1004.1 mb 0.00 in0.0 mm 0.00 in0.0 mm 0.10 in2.5 mm
06:28 AM 46.2°F7.9°C 39.0°F3.9°C 76% Calm Calm 1.0 mph1.6 kmh 29.65 in1004.1 mb 0.00 in0.0 mm 0.00 in0.0 mm 0.10 in2.5 mm
06:35 AM 46.2°F7.9°C 39.0°F3.9°C 76% Calm Calm -- 29.64 in1003.7 mb 0.00 in0.0 mm 0.00 in0.0 mm 0.10 in2.5 mm
06:42 AM 46.2°F7.9°C 39.2°F4.0°C 76% Calm Calm -- 29.64 in1003.7 mb 0.00 in0.0 mm 0.00 in0.0 mm 0.10 in2.5 mm
06:49 AM 46.4°F8.0°C 39.2°F4.0°C 76% Calm Calm 1.0 mph1.6 kmh 29.64 in1003.7 mb 0.08 in2.0 mm 0.69 in17.5 mm 0.27 in6.9 mm
06:56 AM 46.4°F8.0°C 39.2°F4.0°C 76% Calm Calm 3.0 mph4.8 kmh 29.63 in1003.4 mb 0.25 in6.4 mm 1.46 in37.1 mm 0.35 in8.9 mm
07:03 AM 46.4°F8.0°C 39.2°F4.0°C 76% Calm Calm 3.0 mph4.8 kmh 29.62 in1003.0 mb 0.25 in6.4 mm 0.00 in0.0 mm 0.35 in8.9 mm
07:10 AM 46.4°F8.0°C 39.2°F4.0°C 76% Calm Calm -- 29.62 in1003.0 mb 0.25 in6.4 mm 0.00 in0.0 mm 0.35 in8.9 mm
07:17 AM 46.6°F8.1°C 39.4°F4.1°C 76% Calm Calm -- 29.62 in1003.0 mb 0.25 in6.4 mm 0.00 in0.0 mm 0.35 in8.9 mm
07:24 AM 46.6°F8.1°C 39.4°F4.1°C 76% Calm Calm -- 29.62 in1003.0 mb 0.25 in6.4 mm 0.00 in0.0 mm 0.35 in8.9 mm
07:31 AM 46.6°F8.1°C 39.4°F4.1°C 76% Calm Calm -- 29.62 in1003.0 mb 0.25 in6.4 mm 0.00 in0.0 mm 0.35 in8.9 mm
07:38 AM 46.6°F8.1°C 39.4°F4.1°C 76% Calm Calm -- 29.62 in1003.0 mb 0.25 in6.4 mm 0.00 in0.0 mm 0.35 in8.9 mm
07:45 AM 46.6°F8.1°C 39.4°F4.1°C 76% Calm Calm -- 29.62 in1003.0 mb 0.25 in6.4 mm 0.00 in0.0 mm 0.35 in8.9 mm
07:52 AM 46.6°F8.1°C 39.4°F4.1°C 76% Calm Calm -- 29.61 in1002.7 mb 0.00 in0.0 mm 0.00 in0.0 mm 0.35 in8.9 mm
07:59 AM 46.6°F8.1°C 39.4°F4.1°C 76% Calm Calm -- 29.61 in1002.7 mb 0.00 in0.0 mm 0.00 in0.0 mm 0.35 in8.9 mm
08:06 AM 46.6°F8.1°C 39.4°F4.1°C 76% Calm Calm -- 29.61 in1002.7 mb 0.01 in0.3 mm 0.01 in0.3 mm 0.36 in9.1 mm
08:13 AM 46.8°F8.2°C 39.6°F4.2°C 76% Calm Calm -- 29.60 in1002.4 mb 0.02 in0.5 mm 0.09 in2.3 mm 0.37 in9.4 mm
08:20 AM 46.8°F8.2°C 39.6°F4.2°C 76% Calm Calm -- 29.60 in1002.4 mb 0.02 in0.5 mm 0.00 in0.0 mm 0.38 in9.7 mm
08:27 AM 46.8°F8.2°C 39.6°F4.2°C 76% Calm Calm -- 29.60 in1002.4 mb 0.04 in1.0 mm 0.17 in4.3 mm 0.39 in9.9 mm
08:34 AM 46.9°F8.3°C 39.7°F4.3°C 76% Calm Calm -- 29.60 in1002.4 mb 0.05 in1.3 mm 0.09 in2.3 mm 0.40 in10.2 mm
08:41 AM 46.9°F8.3°C 39.7°F4.3°C 76% Calm Calm -- 29.60 in1002.4 mb 0.06 in1.5 mm 0.09 in2.3 mm 0.41 in10.4 mm
08:48 AM 46.9°F8.3°C 40.1°F4.5°C 77% Calm Calm -- 29.60 in1002.4 mb 0.07 in1.8 mm 0.09 in2.3 mm 0.43 in10.9 mm
08:55 AM 46.9°F8.3°C 40.1°F4.5°C 77% Calm Calm -- 29.60 in1002.4 mb 0.08 in2.0 mm 0.09 in2.3 mm 0.43 in10.9 mm
09:02 AM 46.8°F8.2°C 39.6°F4.2°C 76% Calm Calm 4.0 mph6.4 kmh 29.59 in1002.0 mb 0.09 in2.3 mm 0.01 in0.3 mm 0.44 in11.2 mm
09:09 AM 46.8°F8.2°C 39.6°F4.2°C 76% 1.0 mph N1.6 kmh N 4.0 mph6.4 kmh 29.58 in1001.7 mb 0.09 in2.3 mm 0.00 in0.0 mm 0.46 in11.7 mm
09:16 AM 46.8°F8.2°C 39.6°F4.2°C 76% 1.0 mph N1.6 kmh N 5.0 mph8.0 kmh 29.57 in1001.4 mb 0.09 in2.3 mm 0.00 in0.0 mm 0.46 in11.7 mm
09:23 AM 46.8°F8.2°C 39.6°F4.2°C 76% 1.0 mph N1.6 kmh N 7.0 mph11.3 kmh 29.55 in1000.7 mb 0.09 in2.3 mm 0.00 in0.0 mm 0.47 in11.9 mm
09:30 AM 46.8°F8.2°C 39.6°F4.2°C 76% 1.0 mph N1.6 kmh N 7.0 mph11.3 kmh 29.55 in1000.7 mb 0.08 in2.0 mm 0.00 in0.0 mm 0.48 in12.2 mm
09:37 AM 46.8°F8.2°C 39.6°F4.2°C 76% 1.0 mph N1.6 kmh N 7.0 mph11.3 kmh 29.56 in1001.0 mb 0.08 in2.0 mm 0.00 in0.0 mm 0.48 in12.2 mm
09:44 AM 46.8°F8.2°C 39.6°F4.2°C 76% Calm Calm 3.0 mph4.8 kmh 29.57 in1001.4 mb 0.06 in1.5 mm 0.00 in0.0 mm 0.48 in12.2 mm
09:51 AM 46.9°F8.3°C 39.7°F4.3°C 76% Calm Calm 3.0 mph4.8 kmh 29.57 in1001.4 mb 0.06 in1.5 mm 0.00 in0.0 mm 0.50 in12.7 mm
09:58 AM 46.9°F8.3°C 39.7°F4.3°C 76% Calm Calm 4.0 mph6.4 kmh 29.57 in1001.4 mb 0.07 in1.8 mm 0.09 in2.3 mm 0.51 in13.0 mm
10:05 AM 46.9°F8.3°C 39.7°F4.3°C 76% 1.0 mph N1.6 kmh N 5.0 mph8.0 kmh 29.55 in1000.7 mb 0.07 in1.8 mm 0.00 in0.0 mm 0.52 in13.2 mm
10:12 AM 46.8°F8.2°C 39.6°F4.2°C 76% 1.0 mph N1.6 kmh N 5.0 mph8.0 kmh 29.54 in1000.3 mb 0.08 in2.0 mm 0.09 in2.3 mm 0.54 in13.7 mm
10:19 AM 46.9°F8.3°C 39.7°F4.3°C 76% 3.0 mph N4.8 kmh N 7.0 mph11.3 kmh 29.54 in1000.3 mb 0.09 in2.3 mm 0.09 in2.3 mm 0.55 in14.0 mm
10:26 AM 46.9°F8.3°C 39.7°F4.3°C 76% 3.0 mph N4.8 kmh N 5.0 mph8.0 kmh 29.54 in1000.3 mb 0.09 in2.3 mm 0.00 in0.0 mm 0.57 in14.5 mm
10:33 AM 46.9°F8.3°C 40.1°F4.5°C 77% 3.0 mph N4.8 kmh N 5.0 mph8.0 kmh 29.53 in1000.0 mb 0.09 in2.3 mm 0.00 in0.0 mm 0.57 in14.5 mm
10:40 AM 46.9°F8.3°C 39.7°F4.3°C 76% 1.0 mph N1.6 kmh N 5.0 mph8.0 kmh 29.53 in1000.0 mb 0.10 in2.5 mm 0.09 in2.3 mm 0.58 in14.7 mm
10:47 AM 46.9°F8.3°C 39.7°F4.3°C 76% 3.0 mph N4.8 kmh N 7.0 mph11.3 kmh 29.51 in999.3 mb 0.11 in2.8 mm 0.09 in2.3 mm 0.60 in15.2 mm
10:54 AM 47.1°F8.4°C 40.1°F4.5°C 76% 3.0 mph N4.8 kmh N 8.0 mph12.9 kmh 29.49 in998.6 mb 0.10 in2.5 mm 0.00 in0.0 mm 0.61 in15.5 mm
11:01 AM 47.1°F8.4°C 40.1°F4.5°C 76% 4.0 mph N6.4 kmh N 8.0 mph12.9 kmh 29.48 in998.3 mb 0.10 in2.5 mm 0.00 in0.0 mm 0.61 in15.5 mm
11:08 AM 47.3°F8.5°C 40.1°F4.5°C 76% 4.0 mph N6.4 kmh N 8.0 mph12.9 kmh 29.46 in997.6 mb 0.09 in2.3 mm 0.00 in0.0 mm 0.63 in16.0 mm
11:15 AM 47.5°F8.6°C 40.3°F4.6°C 76% 4.0 mph N6.4 kmh N 8.0 mph12.9 kmh 29.46 in997.6 mb 0.09 in2.3 mm 0.00 in0.0 mm 0.63 in16.0 mm
11:22 AM 47.7°F8.7°C 40.5°F4.7°C 76% 3.0 mph N4.8 kmh N 8.0 mph12.9 kmh 29.46 in997.6 mb 0.08 in2.0 mm 0.00 in0.0 mm 0.64 in16.3 mm
11:29 AM 47.8°F8.8°C 40.6°F4.8°C 76% 3.0 mph N4.8 kmh N 7.0 mph11.3 kmh 29.47 in998.0 mb 0.07 in1.8 mm 0.00 in0.0 mm 0.64 in16.3 mm
11:36 AM 47.8°F8.8°C 40.6°F4.8°C 76% 1.0 mph N1.6 kmh N 7.0 mph11.3 kmh 29.47 in998.0 mb 0.06 in1.5 mm 0.00 in0.0 mm 0.65 in16.5 mm
11:43 AM 47.8°F8.8°C 40.6°F4.8°C 76% 1.0 mph N1.6 kmh N 7.0 mph11.3 kmh 29.46 in997.6 mb 0.06 in1.5 mm 0.00 in0.0 mm 0.65 in16.5 mm
11:50 AM 47.8°F8.8°C 40.6°F4.8°C 76% 1.0 mph N1.6 kmh N 4.0 mph6.4 kmh 29.46 in997.6 mb 0.06 in1.5 mm 0.00 in0.0 mm 0.65 in16.5 mm
11:57 AM 47.8°F8.8°C 40.6°F4.8°C 76% 1.0 mph N1.6 kmh N 4.0 mph6.4 kmh 29.45 in997.3 mb 0.05 in1.3 mm 0.00 in0.0 mm 0.66 in16.8 mm
12:04 PM 47.8°F8.8°C 40.6°F4.8°C 76% 1.0 mph N1.6 kmh N 5.0 mph8.0 kmh 29.44 in997.0 mb 0.06 in1.5 mm 0.01 in0.3 mm 0.68 in17.3 mm
12:11 PM 47.8°F8.8°C 40.6°F4.8°C 76% 1.0 mph N1.6 kmh N 5.0 mph8.0 kmh 29.44 in997.0 mb 0.06 in1.5 mm 0.00 in0.0 mm 0.69 in17.5 mm
12:18 PM 48.0°F8.9°C 40.8°F4.9°C 76% 1.0 mph N1.6 kmh N 5.0 mph8.0 kmh 29.43 in996.6 mb 0.06 in1.5 mm 0.00 in0.0 mm 0.69 in17.5 mm
12:25 PM 48.0°F8.9°C 40.8°F4.9°C 76% 1.0 mph N1.6 kmh N 5.0 mph8.0 kmh 29.44 in997.0 mb 0.06 in1.5 mm 0.00 in0.0 mm 0.70 in17.8 mm
12:32 PM 48.0°F8.9°C 40.8°F4.9°C 76% 3.0 mph N4.8 kmh N 7.0 mph11.3 kmh 29.42 in996.3 mb 0.08 in2.0 mm 0.17 in4.3 mm 0.72 in18.3 mm
12:39 PM 48.4°F9.1°C 41.2°F5.1°C 76% 1.0 mph N1.6 kmh N 4.0 mph6.4 kmh 29.41 in995.9 mb 0.10 in2.5 mm 0.17 in4.3 mm 0.75 in19.1 mm
12:46 PM 48.6°F9.2°C 41.4°F5.2°C 76% Calm Calm 7.0 mph11.3 kmh 29.40 in995.6 mb 0.09 in2.3 mm 0.00 in0.0 mm 0.75 in19.1 mm
12:53 PM 48.4°F9.1°C 41.0°F5.0°C 76% 3.0 mph N4.8 kmh N 7.0 mph11.3 kmh 29.38 in994.9 mb 0.10 in2.5 mm 0.09 in2.3 mm 0.76 in19.3 mm
01:00 PM 48.2°F9.0°C 41.0°F5.0°C 76% 4.0 mph N6.4 kmh N 9.0 mph14.5 kmh 29.38 in994.9 mb 0.09 in2.3 mm 0.00 in0.0 mm 0.76 in19.3 mm
01:07 PM 48.0°F8.9°C 40.8°F4.9°C 76% 5.0 mph N8.0 kmh N 13.0 mph20.9 kmh 29.37 in994.6 mb 0.08 in2.0 mm 0.00 in0.0 mm 0.76 in19.3 mm
01:14 PM 48.0°F8.9°C 40.8°F4.9°C 76% 5.0 mph N8.0 kmh N 13.0 mph20.9 kmh 29.35 in993.9 mb 0.06 in1.5 mm 0.00 in0.0 mm 0.76 in19.3 mm
01:21 PM 48.0°F8.9°C 40.8°F4.9°C 76% 7.0 mph N11.3 kmh N 13.0 mph20.9 kmh 29.34 in993.6 mb 0.06 in1.5 mm 0.00 in0.0 mm 0.76 in19.3 mm
01:28 PM 48.0°F8.9°C 40.8°F4.9°C 76% 7.0 mph N11.3 kmh N 15.0 mph24.1 kmh 29.33 in993.2 mb 0.06 in1.5 mm 0.00 in0.0 mm 0.76 in19.3 mm
01:35 PM 47.8°F8.8°C 40.6°F4.8°C 76% 7.0 mph N11.3 kmh N 15.0 mph24.1 kmh 29.31 in992.6 mb 0.02 in0.5 mm 0.00 in0.0 mm 0.76 in19.3 mm
01:42 PM 48.0°F8.9°C 40.8°F4.9°C 76% 7.0 mph N11.3 kmh N 15.0 mph24.1 kmh 29.32 in992.9 mb 0.02 in0.5 mm 0.00 in0.0 mm 0.77 in19.6 mm
01:49 PM 48.4°F9.1°C 41.0°F5.0°C 76% 7.0 mph N11.3 kmh N 9.0 mph14.5 kmh 29.32 in992.9 mb 0.02 in0.5 mm 0.00 in0.0 mm 0.78 in19.8 mm
01:56 PM 48.6°F9.2°C 41.4°F5.2°C 76% 7.0 mph N11.3 kmh N 15.0 mph24.1 kmh 29.30 in992.2 mb 0.02 in0.5 mm 0.00 in0.0 mm 0.78 in19.8 mm
02:03 PM 48.7°F9.3°C 41.5°F5.3°C 76% 7.0 mph N11.3 kmh N 15.0 mph24.1 kmh 29.30 in992.2 mb 0.03 in0.8 mm 0.01 in0.3 mm 0.79 in20.1 mm
02:10 PM 48.9°F9.4°C 41.7°F5.4°C 76% 5.0 mph N8.0 kmh N 15.0 mph24.1 kmh 29.28 in991.5 mb 0.04 in1.0 mm 0.09 in2.3 mm 0.80 in20.3 mm
02:17 PM 49.3°F9.6°C 41.9°F5.5°C 76% 7.0 mph N11.3 kmh N 15.0 mph24.1 kmh 29.28 in991.5 mb 0.05 in1.3 mm 0.09 in2.3 mm 0.80 in20.3 mm
02:24 PM 49.3°F9.6°C 42.1°F5.6°C 76% 5.0 mph N8.0 kmh N 15.0 mph24.1 kmh 29.29 in991.9 mb 0.04 in1.0 mm 0.00 in0.0 mm 0.80 in20.3 mm
02:31 PM 49.5°F9.7°C 42.1°F5.6°C 76% 4.0 mph N6.4 kmh N 11.0 mph17.7 kmh 29.30 in992.2 mb 0.04 in1.0 mm 0.00 in0.0 mm 0.80 in20.3 mm
02:38 PM 49.5°F9.7°C 42.3°F5.7°C 76% 3.0 mph N4.8 kmh N 8.0 mph12.9 kmh 29.29 in991.9 mb 0.10 in2.5 mm 0.51 in13.0 mm 0.87 in22.1 mm
02:45 PM 49.8°F9.9°C 42.6°F5.9°C 76% 4.0 mph N6.4 kmh N 8.0 mph12.9 kmh 29.29 in991.9 mb 0.10 in2.5 mm 0.00 in0.0 mm 0.88 in22.4 mm
02:52 PM 49.8°F9.9°C 42.6°F5.9°C 76% 3.0 mph N4.8 kmh N 7.0 mph11.3 kmh 29.28 in991.5 mb 0.11 in2.8 mm 0.09 in2.3 mm 0.89 in22.6 mm
02:59 PM 50.0°F10.0°C 42.8°F6.0°C 76% 3.0 mph N4.8 kmh N 7.0 mph11.3 kmh 29.28 in991.5 mb 0.12 in3.0 mm 0.09 in2.3 mm 0.91 in23.1 mm
03:06 PM 50.2°F10.1°C 42.8°F6.0°C 76% 3.0 mph N4.8 kmh N 8.0 mph12.9 kmh 29.29 in991.9 mb 0.13 in3.3 mm 0.01 in0.3 mm 0.92 in23.4 mm
03:13 PM 50.2°F10.1°C 43.0°F6.1°C 76% 4.0 mph N6.4 kmh N 15.0 mph24.1 kmh 29.31 in992.6 mb 0.13 in3.3 mm 0.00 in0.0 mm 0.92 in23.4 mm
03:20 PM 50.2°F10.1°C 42.8°F6.0°C 76% 5.0 mph N8.0 kmh N 15.0 mph24.1 kmh 29.32 in992.9 mb 0.13 in3.3 mm 0.00 in0.0 mm 0.94 in23.9 mm
03:27 PM 50.2°F10.1°C 42.8°F6.0°C 76% 5.0 mph N8.0 kmh N 13.0 mph20.9 kmh 29.32 in992.9 mb 0.13 in3.3 mm 0.00 in0.0 mm 0.94 in23.9 mm
03:34 PM 49.8°F9.9°C 42.6°F5.9°C 76% 4.0 mph N6.4 kmh N 15.0 mph24.1 kmh 29.32 in992.9 mb 0.13 in3.3 mm 0.00 in0.0 mm 0.95 in24.1 mm
03:41 PM 49.3°F9.6°C 41.9°F5.5°C 76% 4.0 mph N6.4 kmh N 8.0 mph12.9 kmh 29.31 in992.6 mb 0.08 in2.0 mm 0.00 in0.0 mm 0.96 in24.4 mm
03:48 PM 48.7°F9.3°C 41.2°F5.1°C 75% 3.0 mph N4.8 kmh N 8.0 mph12.9 kmh 29.31 in992.6 mb 0.07 in1.8 mm 0.00 in0.0 mm 0.96 in24.4 mm
03:55 PM 48.6°F9.2°C 41.4°F5.2°C 76% 3.0 mph N4.8 kmh N 7.0 mph11.3 kmh 29.30 in992.2 mb 0.07 in1.8 mm 0.00 in0.0 mm 0.96 in24.4 mm
04:02 PM 48.6°F9.2°C 41.4°F5.2°C 76% 1.0 mph N1.6 kmh N 5.0 mph8.0 kmh 29.30 in992.2 mb 0.05 in1.3 mm 0.00 in0.0 mm 0.96 in24.4 mm
04:09 PM 48.6°F9.2°C 41.4°F5.2°C 76% 3.0 mph N4.8 kmh N 5.0 mph8.0 kmh 29.31 in992.6 mb 0.04 in1.0 mm 0.00 in0.0 mm 0.96 in24.4 mm
04:16 PM 48.6°F9.2°C 41.4°F5.2°C 76% 3.0 mph N4.8 kmh N 7.0 mph11.3 kmh 29.30 in992.2 mb 0.03 in0.8 mm 0.00 in0.0 mm 0.96 in24.4 mm
04:23 PM 48.4°F9.1°C 41.0°F5.0°C 76% 1.0 mph N1.6 kmh N 5.0 mph8.0 kmh 29.30 in992.2 mb 0.02 in0.5 mm 0.00 in0.0 mm 0.96 in24.4 mm
04:30 PM 48.4°F9.1°C 40.8°F4.9°C 75% 1.0 mph N1.6 kmh N 4.0 mph6.4 kmh 29.31 in992.6 mb 0.02 in0.5 mm 0.00 in0.0 mm 0.96 in24.4 mm
04:37 PM 48.4°F9.1°C 41.0°F5.0°C 76% 1.0 mph N1.6 kmh N 4.0 mph6.4 kmh 29.32 in992.9 mb 0.01 in0.3 mm 0.00 in0.0 mm 0.96 in24.4 mm
04:44 PM 48.4°F9.1°C 40.8°F4.9°C 75% 1.0 mph N1.6 kmh N 5.0 mph8.0 kmh 29.32 in992.9 mb 0.00 in0.0 mm 0.00 in0.0 mm 0.96 in24.4 mm
04:51 PM 48.4°F9.1°C 40.8°F4.9°C 75% 3.0 mph N4.8 kmh N 5.0 mph8.0 kmh 29.32 in992.9 mb 0.00 in0.0 mm 0.00 in0.0 mm 0.96 in24.4 mm
04:58 PM 48.4°F9.1°C 41.0°F5.0°C 76% 3.0 mph N4.8 kmh N 8.0 mph12.9 kmh 29.32 in992.9 mb 0.00 in0.0 mm 0.00 in0.0 mm 0.96 in24.4 mm
05:05 PM 48.2°F9.0°C 40.6°F4.8°C 75% 3.0 mph N4.8 kmh N 8.0 mph12.9 kmh 29.33 in993.2 mb 0.00 in0.0 mm 0.00 in0.0 mm 0.96 in24.4 mm
05:12 PM 48.0°F8.9°C 40.5°F4.7°C 75% 3.0 mph N4.8 kmh N 8.0 mph12.9 kmh 29.33 in993.2 mb 0.00 in0.0 mm 0.00 in0.0 mm 0.96 in24.4 mm
05:19 PM 47.8°F8.8°C 40.3°F4.6°C 75% 4.0 mph N6.4 kmh N 13.0 mph20.9 kmh 29.33 in993.2 mb 0.00 in0.0 mm 0.00 in0.0 mm 0.96 in24.4 mm
05:26 PM 47.5°F8.6°C 39.9°F4.4°C 75% 3.0 mph N4.8 kmh N 12.0 mph19.3 kmh 29.34 in993.6 mb 0.00 in0.0 mm 0.00 in0.0 mm 0.96 in24.4 mm
05:33 PM 47.1°F8.4°C 39.7°F4.3°C 75% 4.0 mph N6.4 kmh N 12.0 mph19.3 kmh 29.34 in993.6 mb 0.00 in0.0 mm 0.00 in0.0 mm 0.96 in24.4 mm
05:40 PM 46.9°F8.3°C 39.6°F4.2°C 75% 3.0 mph N4.8 kmh N 12.0 mph19.3 kmh 29.34 in993.6 mb 0.00 in0.0 mm 0.00 in0.0 mm 0.96 in24.4 mm
05:47 PM 46.8°F8.2°C 39.4°F4.1°C 75% 4.0 mph N6.4 kmh N 13.0 mph20.9 kmh 29.34 in993.6 mb 0.00 in0.0 mm 0.00 in0.0 mm 0.96 in24.4 mm
05:54 PM 46.6°F8.1°C 39.0°F3.9°C 75% 5.0 mph N8.0 kmh N 19.0 mph30.6 kmh 29.34 in993.6 mb 0.00 in0.0 mm 0.00 in0.0 mm 0.96 in24.4 mm
06:01 PM 46.6°F8.1°C 39.0°F3.9°C 75% 4.0 mph N6.4 kmh N 13.0 mph20.9 kmh 29.35 in993.9 mb 0.00 in0.0 mm 0.00 in0.0 mm 0.96 in24.4 mm
06:08 PM 46.6°F8.1°C 39.0°F3.9°C 75% 5.0 mph N8.0 kmh N 21.0 mph33.8 kmh 29.35 in993.9 mb 0.01 in0.3 mm 0.09 in2.3 mm 0.97 in24.6 mm
06:15 PM 46.4°F8.0°C 38.8°F3.8°C 75% 5.0 mph N8.0 kmh N 21.0 mph33.8 kmh 29.36 in994.2 mb 0.01 in0.3 mm 0.00 in0.0 mm 0.97 in24.6 mm
06:22 PM 46.2°F7.9°C 38.7°F3.7°C 75% 5.0 mph N8.0 kmh N 13.0 mph20.9 kmh 29.36 in994.2 mb 0.01 in0.3 mm 0.00 in0.0 mm 0.97 in24.6 mm
06:29 PM 46.0°F7.8°C 38.5°F3.6°C 75% 5.0 mph N8.0 kmh N 17.0 mph27.4 kmh 29.37 in994.6 mb 0.01 in0.3 mm 0.00 in0.0 mm 0.97 in24.6 mm
06:36 PM 45.9°F7.7°C 38.3°F3.5°C 75% 5.0 mph N8.0 kmh N 23.0 mph37.0 kmh 29.37 in994.6 mb 0.01 in0.3 mm 0.00 in0.0 mm 0.97 in24.6 mm
06:43 PM 45.7°F7.6°C 38.1°F3.4°C 75% 7.0 mph N11.3 kmh N 23.0 mph37.0 kmh 29.37 in994.6 mb 0.01 in0.3 mm 0.00 in0.0 mm 0.97 in24.6 mm
06:50 PM 45.3°F7.4°C 37.9°F3.3°C 75% 4.0 mph N6.4 kmh N 12.0 mph19.3 kmh 29.38 in994.9 mb 0.02 in0.5 mm 0.09 in2.3 mm 0.98 in24.9 mm
06:57 PM 45.1°F7.3°C 37.8°F3.2°C 75% 5.0 mph N8.0 kmh N 17.0 mph27.4 kmh 29.38 in994.9 mb 0.02 in0.5 mm 0.00 in0.0 mm 0.98 in24.9 mm
07:04 PM 44.6°F7.0°C 37.2°F2.9°C 75% 7.0 mph N11.3 kmh N 21.0 mph33.8 kmh 29.38 in994.9 mb 0.03 in0.8 mm 0.01 in0.3 mm 0.99 in25.1 mm
07:11 PM 44.2°F6.8°C 36.9°F2.7°C 75% 7.0 mph N11.3 kmh N 21.0 mph33.8 kmh 29.38 in994.9 mb 0.02 in0.5 mm 0.00 in0.0 mm 0.99 in25.1 mm
07:18 PM 43.9°F6.6°C 36.5°F2.5°C 75% 7.0 mph N11.3 kmh N 20.0 mph32.2 kmh 29.38 in994.9 mb 0.03 in0.8 mm 0.09 in2.3 mm 1.00 in25.4 mm
07:25 PM 43.7°F6.5°C 36.3°F2.4°C 75% 8.0 mph N12.9 kmh N 21.0 mph33.8 kmh 29.38 in994.9 mb 0.03 in0.8 mm 0.00 in0.0 mm 1.00 in25.4 mm
07:32 PM 43.5°F6.4°C 36.1°F2.3°C 75% 7.0 mph N11.3 kmh N 20.0 mph32.2 kmh 29.39 in995.3 mb 0.04 in1.0 mm 0.09 in2.3 mm 1.01 in25.7 mm
07:39 PM 42.6°F5.9°C 34.9°F1.6°C 74% 7.0 mph N11.3 kmh N 23.0 mph37.0 kmh 29.39 in995.3 mb 0.04 in1.0 mm 0.00 in0.0 mm 1.01 in25.7 mm
07:46 PM 41.7°F5.4°C 34.2°F1.2°C 74% 7.0 mph N11.3 kmh N 21.0 mph33.8 kmh 29.40 in995.6 mb 0.04 in1.0 mm 0.00 in0.0 mm 1.01 in25.7 mm
07:53 PM 41.0°F5.0°C 33.3°F0.7°C 74% 7.0 mph N11.3 kmh N 25.0 mph40.2 kmh 29.39 in995.3 mb 0.03 in0.8 mm 0.00 in0.0 mm 1.01 in25.7 mm
08:00 PM 40.6°F4.8°C 32.9°F0.5°C 74% 8.0 mph N12.9 kmh N 24.0 mph38.6 kmh 29.40 in995.6 mb 0.02 in0.5 mm 0.00 in0.0 mm 1.01 in25.7 mm
08:07 PM 40.5°F4.7°C 32.7°F0.4°C 74% 8.0 mph N12.9 kmh N 24.0 mph38.6 kmh 29.40 in995.6 mb 0.02 in0.5 mm 0.00 in0.0 mm 1.01 in25.7 mm
08:14 PM 40.3°F4.6°C 32.7°F0.4°C 74% 7.0 mph N11.3 kmh N 21.0 mph33.8 kmh 29.40 in995.6 mb 0.01 in0.3 mm 0.00 in0.0 mm 1.01 in25.7 mm
08:21 PM 40.3°F4.6°C 32.7°F0.4°C 74% 5.0 mph N8.0 kmh N 19.0 mph30.6 kmh 29.41 in995.9 mb 0.02 in0.5 mm 0.09 in2.3 mm 1.02 in25.9 mm
08:28 PM 40.3°F4.6°C 32.5°F0.3°C 74% 5.0 mph N8.0 kmh N 19.0 mph30.6 kmh 29.41 in995.9 mb 0.02 in0.5 mm 0.00 in0.0 mm 1.02 in25.9 mm
08:35 PM 40.3°F4.6°C 32.5°F0.3°C 74% 5.0 mph N8.0 kmh N 16.0 mph25.7 kmh 29.41 in995.9 mb 0.02 in0.5 mm 0.00 in0.0 mm 1.02 in25.9 mm
08:42 PM 40.3°F4.6°C 33.1°F0.6°C 75% 5.0 mph N8.0 kmh N 17.0 mph27.4 kmh 29.41 in995.9 mb 0.02 in0.5 mm 0.00 in0.0 mm 1.03 in26.2 mm
08:49 PM 40.6°F4.8°C 33.4°F0.8°C 75% 7.0 mph N11.3 kmh N 20.0 mph32.2 kmh 29.41 in995.9 mb 0.04 in1.0 mm 0.17 in4.3 mm 1.05 in26.7 mm
08:56 PM 40.5°F4.7°C 32.7°F0.4°C 74% 9.0 mph N14.5 kmh N 21.0 mph33.8 kmh 29.42 in996.3 mb 0.05 in1.3 mm 0.09 in2.3 mm 1.06 in26.9 mm
09:03 PM 39.4°F4.1°C 31.6°F-0.2°C 74% 12.0 mph N19.3 kmh N 25.0 mph40.2 kmh 29.43 in996.6 mb 0.06 in1.5 mm 0.01 in0.3 mm 1.06 in26.9 mm
09:10 PM 38.7°F3.7°C 31.1°F-0.5°C 74% 12.0 mph N19.3 kmh N 29.0 mph46.7 kmh 29.43 in996.6 mb 0.06 in1.5 mm 0.00 in0.0 mm 1.07 in27.2 mm
09:17 PM 38.1°F3.4°C 30.6°F-0.8°C 74% 12.0 mph N19.3 kmh N 23.0 mph37.0 kmh 29.44 in997.0 mb 0.06 in1.5 mm 0.00 in0.0 mm 1.08 in27.4 mm
09:24 PM 38.1°F3.4°C 30.6°F-0.8°C 74% 12.0 mph N19.3 kmh N 24.0 mph38.6 kmh 29.45 in997.3 mb 0.07 in1.8 mm 0.09 in2.3 mm 1.09 in27.7 mm
09:31 PM 37.9°F3.3°C 30.4°F-0.9°C 74% 12.0 mph N19.3 kmh N 25.0 mph40.2 kmh 29.45 in997.3 mb 0.07 in1.8 mm 0.00 in0.0 mm 1.09 in27.7 mm
09:38 PM 37.6°F3.1°C 29.7°F-1.3°C 73% 13.0 mph N20.9 kmh N 28.0 mph45.1 kmh 29.46 in997.6 mb 0.07 in1.8 mm 0.00 in0.0 mm 1.10 in27.9 mm
09:45 PM 36.7°F2.6°C 28.9°F-1.7°C 73% 13.0 mph N20.9 kmh N 28.0 mph45.1 kmh 29.47 in998.0 mb 0.07 in1.8 mm 0.00 in0.0 mm 1.11 in28.2 mm
09:52 PM 36.1°F2.3°C 28.4°F-2.0°C 73% 13.0 mph N20.9 kmh N 28.0 mph45.1 kmh 29.48 in998.3 mb 0.07 in1.8 mm 0.00 in0.0 mm 1.12 in28.4 mm
09:59 PM 36.0°F2.2°C 28.4°F-2.0°C 74% 15.0 mph N24.1 kmh N 29.0 mph46.7 kmh 29.49 in998.6 mb 0.07 in1.8 mm 0.00 in0.0 mm 1.13 in28.7 mm
10:06 PM 36.0°F2.2°C 28.4°F-2.0°C 74% 13.0 mph N20.9 kmh N 28.0 mph45.1 kmh 29.50 in999.0 mb 0.06 in1.5 mm 0.00 in0.0 mm 1.13 in28.7 mm
10:13 PM 36.0°F2.2°C 28.4°F-2.0°C 74% 12.0 mph N19.3 kmh N 27.0 mph43.5 kmh 29.51 in999.3 mb 0.06 in1.5 mm 0.00 in0.0 mm 1.13 in28.7 mm
10:20 PM 35.8°F2.1°C 28.4°F-2.0°C 74% 12.0 mph N19.3 kmh N 27.0 mph43.5 kmh 29.52 in999.7 mb 0.06 in1.5 mm 0.00 in0.0 mm 1.14 in29.0 mm
10:27 PM 35.6°F2.0°C 28.0°F-2.2°C 74% 13.0 mph N20.9 kmh N 35.0 mph56.3 kmh 29.53 in1000.0 mb 0.06 in1.5 mm 0.00 in0.0 mm 1.15 in29.2 mm
10:34 PM 35.6°F2.0°C 28.0°F-2.2°C 74% 15.0 mph N24.1 kmh N 35.0 mph56.3 kmh 29.54 in1000.3 mb 0.06 in1.5 mm 0.00 in0.0 mm 1.16 in29.5 mm
10:41 PM 35.4°F1.9°C 27.9°F-2.3°C 74% 15.0 mph N24.1 kmh N 29.0 mph46.7 kmh 29.55 in1000.7 mb 0.06 in1.5 mm 0.00 in0.0 mm 1.16 in29.5 mm
10:48 PM 35.4°F1.9°C 27.9°F-2.3°C 74% 13.0 mph N20.9 kmh N 35.0 mph56.3 kmh 29.56 in1001.0 mb 0.05 in1.3 mm 0.00 in0.0 mm 1.17 in29.7 mm
10:55 PM 35.4°F1.9°C 27.9°F-2.3°C 74% 13.0 mph N20.9 kmh N 23.0 mph37.0 kmh 29.57 in1001.4 mb 0.04 in1.0 mm 0.00 in0.0 mm 1.17 in29.7 mm
11:02 PM 35.4°F1.9°C 27.9°F-2.3°C 74% 13.0 mph N20.9 kmh N 24.0 mph38.6 kmh 29.58 in1001.7 mb 0.05 in1.3 mm 0.01 in0.3 mm 0.80 in20.3 mm
11:09 PM 35.4°F1.9°C 27.7°F-2.4°C 73% 12.0 mph N19.3 kmh N 23.0 mph37.0 kmh 29.59 in1002.0 mb 0.04 in1.0 mm 0.00 in0.0 mm 0.80 in20.3 mm
11:16 PM 35.6°F2.0°C 27.9°F-2.3°C 73% 12.0 mph N19.3 kmh N 27.0 mph43.5 kmh 29.59 in1002.0 mb 0.04 in1.0 mm 0.00 in0.0 mm 0.01 in0.3 mm
11:23 PM 35.4°F1.9°C 27.7°F-2.4°C 73% 13.0 mph N20.9 kmh N 28.0 mph45.1 kmh 29.61 in1002.7 mb 0.04 in1.0 mm 0.00 in0.0 mm 0.01 in0.3 mm
11:30 PM 35.2°F1.8°C 27.5°F-2.5°C 73% 15.0 mph N24.1 kmh N 33.0 mph53.1 kmh 29.62 in1003.0 mb 0.04 in1.0 mm 0.00 in0.0 mm 0.02 in0.5 mm
11:37 PM 35.2°F1.8°C 27.5°F-2.5°C 73% 13.0 mph N20.9 kmh N 33.0 mph53.1 kmh 29.63 in1003.4 mb 0.04 in1.0 mm 0.00 in0.0 mm 0.02 in0.5 mm
11:44 PM 35.2°F1.8°C 27.5°F-2.5°C 73% 13.0 mph N20.9 kmh N 28.0 mph45.1 kmh 29.64 in1003.7 mb 0.04 in1.0 mm 0.00 in0.0 mm 0.02 in0.5 mm
11:51 PM 35.2°F1.8°C 27.5°F-2.5°C 73% 13.0 mph N20.9 kmh N 29.0 mph46.7 kmh 29.65 in1004.1 mb 0.04 in1.0 mm 0.00 in0.0 mm 0.03 in0.8 mm
11:58 PM 35.2°F1.8°C 27.5°F-2.5°C 73% 12.0 mph N19.3 kmh N 29.0 mph46.7 kmh 29.66 in1004.4 mb 0.03 in0.8 mm 0.00 in0.0 mm 0.03 in0.8 mm